x

Santa Monica Basin - 33nm Wsw Of Santa Monica, Ca (46025) Weather Station

7:20 - Tue 19th Sep 2017 All times are PDT. -7 hours from GMT.

  • Wind
    2mph, 7mph gusts
  • Sea Temp 67°f
  • Sea Pressure 1012.9mb
  • Santa Monica Basin - 33nm Wsw Of Santa Monica, Ca
  • Santa Monica Basin - 33nm Wsw Of Santa Monica, Ca

More Historic Weather Station data

Upgrade to MSW Pro to gain access to the past 30 days of data for over 8000 Wavebouys and Weather Stations around the globe.

Join

Comparision Forecast

View Surf forecast
   
Ter 09/19 7:20  -   -   -  2 7 mph 1012.9mb 67f
7:10  -   -   -  2 2 mph 1012.9mb 67f
7:00  -   -   -   -  2 mph 1012.9mb 66f
6:50 2.5ft 11s 5s  -  2 mph 1012.7mb 66f
6:40 2.5ft  -  5s 2 2 mph 1012.7mb 66f
6:30  -   -   -   -  2 mph 1012.7mb 66f
6:20  -   -   -  2 2 mph 1012.7mb 66f
6:10  -   -   -  2 2 mph 1012.7mb 66f
6:00  -   -   -  2 4 mph 1012.6mb 66f
5:50 3ft 6s 6s 2 4 mph 1012.5mb 66f
5:40  -   -   -   -  2 mph 1012.4mb 66f
5:30  -   -   -   -  0 mph 1012.3mb 66f
5:20  -   -   -   -  2 mph 1012.3mb 66f
5:10  -   -   -   -  2 mph 1012.3mb 66f
5:00  -   -   -   -  2 mph 1012.1mb 66f
4:50 3.5ft 7s 6s 2 4 mph 1012mb 67f
4:40 3.5ft  -  6s 4 7 mph 1011.9mb 67f
4:30  -   -   -  4 7 mph 1012mb 66f
4:20  -   -   -  4 7 mph 1012mb 66f
4:10  -   -   -  2 4 mph 1011.9mb 66f
4:00  -   -   -   -  2 mph 1012.1mb 66f
3:50 3.5ft 7s 6s  -  2 mph 1012.1mb 66f
3:40 3.5ft  -  6s  -  0 mph 1012.1mb 66f
3:30  -   -   -  2 4 mph 1012.1mb 66f
3:20  -   -   -  4 7 mph 1012.2mb 66f
3:10  -   -   -  4 7 mph 1012.2mb 66f
3:00  -   -   -  4 7 mph 1012.2mb 67f
2:50 2.5ft 7s 5s 4 9 mph 1012.2mb 67f
2:40 2.5ft  -  5s 7 11 mph 1012.1mb 67f
2:30  -   -   -  4 7 mph 1012.2mb 67f
2:20  -   -   -  4 7 mph 1012.1mb 67f
2:10  -   -   -  4 7 mph 1012.1mb 67f
2:00  -   -   -  4 7 mph 1012.2mb 67f
1:50 3ft 11s 5s 2 4 mph 1012.3mb 67f
1:40 3ft  -  5s 4 4 mph 1012.3mb 67f
1:30  -   -   -  4 7 mph 1012.3mb 67f
1:20  -   -   -  4 7 mph 1012.3mb 67f
1:10  -   -   -  4 7 mph 1012.3mb 67f
1:00  -   -   -  4 7 mph 1012.4mb 67f
12:50 3ft 11s 5s 4 7 mph 1012.3mb 67f
12:40 3ft  -  5s 7 9 mph 1012.3mb 67f
12:30  -   -   -  9 11 mph 1012.5mb 67f
12:20  -   -   -  9 11 mph 1012.5mb 67f
12:10  -   -   -  11 13 mph 1012.5mb 67f
12:00  -   -   -  9 13 mph 1012.6mb 67f
Seg 09/18 11:50 2.5ft 12s 5s 2 4 mph 1012.6mb 67f
11:40 2.5ft  -  5s 2 4 mph 1012.5mb 67f
11:30  -   -   -  2 2 mph 1012.5mb 67f
11:20  -   -   -  2 4 mph 1012.6mb 67f
11:10  -   -   -  4 7 mph 1012.6mb 67f
11:00  -   -   -  4 7 mph 1012.7mb 67f
10:50 2.5ft 11s 6s 7 9 mph 1012.7mb 67f
10:40 2.5ft  -  6s 7 9 mph 1012.7mb 67f
10:30  -   -   -  9 11 mph 1012.6mb 67f
10:20  -   -   -  11 13 mph 1012.6mb 67f
10:10  -   -   -  13 16 mph 1012.6mb 67f
10:00  -   -   -  9 16 mph 1012.4mb -
9:50 2ft 11s 6s 4 7 mph 1012.3mb 67f
9:40  -   -   -  7 9 mph 1012.3mb 67f
9:30  -   -   -  7 9 mph 1012.3mb -
9:20  -   -   -  4 9 mph 1012.3mb 67f
9:10  -   -   -  4 7 mph 1012.4mb 68f
9:00  -   -   -  4 7 mph 1012.4mb 68f
8:50 2ft 11s 6s 7 9 mph 1012.3mb 67f
8:40 2ft  -  6s 7 11 mph 1012.3mb 67f
8:30  -   -   -  7 9 mph 1012.1mb 67f
8:20  -   -   -  4 9 mph 1012.1mb 67f
8:10  -   -   -  4 4 mph 1012mb 67f
8:00  -   -   -  4 4 mph 1011.9mb 67f
7:50 2ft 11s 6s 7 9 mph 1011.9mb 67f
7:40  -   -   -  4 9 mph 1011.9mb 67f
7:30  -   -   -  7 11 mph 1012mb 67f
7:20  -   -   -  9 11 mph 1011.9mb 67f
7:10  -   -   -  9 13 mph 1011.9mb 67f
7:00  -   -   -  9 11 mph 1011.9mb 67f
6:50 2ft 11s 6s 7 13 mph 1012.1mb 67f
6:40 2ft  -  6s 11 13 mph 1012.1mb 67f
6:30  -   -   -  9 13 mph 1012.2mb 67f
6:20  -   -   -  11 13 mph 1012.1mb -
6:10  -   -   -  11 13 mph 1012.1mb 67f
6:00  -   -   -  11 16 mph 1012.3mb 68f
5:50 2.5ft 11s 6s 11 13 mph 1012.1mb 68f
5:40 2.5ft  -  6s 11 13 mph 1012.3mb 67f
5:30  -   -   -  13 16 mph 1012.4mb 67f
5:20  -   -   -  11 13 mph 1012.5mb 67f
5:10  -   -   -  9 11 mph 1012.3mb 67f
5:00  -   -   -  7 9 mph 1012.1mb 67f
4:50 2.5ft 11s 6s 7 9 mph 1012.3mb 67f
4:40 2.5ft  -  6s 7 9 mph 1012.4mb 67f
4:30  -   -   -  7 9 mph 1012.4mb 67f
4:20  -   -   -  7 9 mph 1012.4mb 67f
4:10  -   -   -  7 9 mph 1012.7mb 68f
4:00  -   -   -  7 9 mph 1012.7mb 67f
3:50 2.5ft 10s 6s 7 9 mph 1012.7mb 67f
3:40 2.5ft  -  6s 7 9 mph 1012.8mb 67f
3:30  -   -   -  7 9 mph 1012.8mb 67f
3:20  -   -   -  7 9 mph 1012.9mb 67f
3:10  -   -   -  9 9 mph 1013.1mb 67f
3:00  -   -   -  9 11 mph 1013.2mb 67f
2:50 2.5ft 11s 7s 9 11 mph 1013.4mb 67f
2:40 2.5ft  -  7s 9 11 mph 1013.4mb 67f
2:30  -   -   -  7 9 mph 1013.5mb 67f
2:20  -   -   -  7 9 mph 1013.6mb 67f
2:10  -   -   -  7 7 mph 1013.7mb 67f
2:00  -   -   -  4 7 mph 1013.8mb 67f
1:50 2.5ft 11s 7s 4 4 mph 1014mb 66f
1:40  -   -   -  4 4 mph 1014mb 66f
1:30  -   -   -  4 4 mph 1013.9mb 66f
1:20  -   -   -  2 4 mph 1014mb 67f
1:10  -   -   -  2 2 mph 1014.1mb 66f
1:00  -   -   -   -  2 mph 1014.2mb 66f
12:50 2ft 11s 7s  -  2 mph 1014.2mb 66f
12:40 2ft  -  7s  -  2 mph 1014.2mb 66f
12:30  -   -   -   -  2 mph 1014.3mb 66f
12:20  -   -   -  2 4 mph 1014.3mb 66f
12:10  -   -   -  4 4 mph 1014.4mb 66f
12:00  -   -   -  4 4 mph 1014.6mb 66f
11:50 2ft 11s 7s 4 4 mph 1014.6mb 66f
11:40  -   -   -  4 7 mph 1014.6mb 66f
11:30  -   -   -  4 7 mph 1014.6mb 66f
11:20  -   -   -  2 4 mph 1014.6mb 66f
11:10  -   -   -   -  4 mph 1014.6mb 66f
11:00  -   -   -   -  2 mph 1014.6mb 66f
10:50 2ft 11s 6s  -  2 mph 1014.6mb 66f
10:40 2ft  -  6s  -  2 mph 1014.6mb 65f
10:30  -   -   -  2 2 mph 1014.6mb 65f
10:20  -   -   -  2 4 mph 1014.6mb 66f
10:10  -   -   -  2 4 mph 1014.5mb 66f
10:00  -   -   -  2 4 mph 1014.5mb -
9:50 2ft 11s 6s 2 4 mph 1014.3mb 66f
9:40 2ft  -  6s 2 2 mph 1014.3mb 66f
9:30  -   -   -  2 2 mph 1014.3mb 66f
9:20  -   -   -  2 2 mph 1014.1mb 66f
9:10  -   -   -  2 2 mph 1014mb 66f
9:00  -   -   -  2 2 mph 1014mb 66f
8:50 2ft 11s 6s 2 4 mph 1013.9mb 66f
8:40  -   -   -  2 4 mph 1013.9mb 66f
8:30  -   -   -  2 4 mph 1013.9mb 66f
8:20  -   -   -   -  2 mph 1013.8mb 66f
8:10  -   -   -   -  0 mph 1013.8mb 66f
8:00  -   -   -   -  2 mph 1013.5mb 66f
7:50 2.5ft 11s 6s 2 2 mph 1013.5mb 66f
7:40  -   -   -  2 2 mph 1013.5mb 66f
7:30  -   -   -  2 4 mph 1013.5mb 66f
7:20  -   -   -  2 4 mph 1013.3mb 66f
7:10  -   -   -  2 4 mph 1013.2mb 66f
7:00  -   -   -  2 4 mph 1013.2mb 66f
6:50 2.5ft 12s 6s 4 7 mph 1013.1mb 66f
6:40 2.5ft  -  6s 4 7 mph 1013mb 66f
6:30  -   -   -  4 7 mph 1012.9mb 66f
6:20  -   -   -  4 4 mph 1012.9mb 66f
6:10  -   -   -  2 4 mph 1012.7mb 66f
6:00  -   -   -  2 4 mph 1012.7mb -
5:50 2.5ft 12s 5s 2 4 mph 1012.6mb 66f
5:40 2.5ft  -  5s 2 2 mph 1012.6mb 66f
5:30  -   -   -   -  2 mph 1012.7mb 66f
5:20  -   -   -   -  2 mph 1012.7mb 66f
5:10  -   -   -   -  2 mph 1012.7mb 66f
5:00  -   -   -  2 2 mph 1012.6mb 66f
4:50 2.5ft 11s 6s 2 4 mph 1012.6mb 66f
4:40 2.5ft  -  6s 2 4 mph 1012.6mb 66f
4:30  -   -   -  2 4 mph 1012.6mb 66f
4:20  -   -   -  2 4 mph 1012.7mb 66f
4:10  -   -   -  2 4 mph 1012.7mb 66f
4:00  -   -   -  2 4 mph 1012.8mb 66f
3:50 2.5ft 11s 6s 4 4 mph 1012.7mb 66f
3:40  -   -   -  4 7 mph 1012.7mb 66f
3:30  -   -   -  4 7 mph 1012.9mb 66f
3:20  -   -   -  4 7 mph 1012.9mb 66f
3:10  -   -   -  7 7 mph 1013mb 66f
3:00  -   -   -  7 7 mph 1013.1mb 66f
2:50 2.5ft 10s 6s 7 7 mph 1013.2mb 66f
2:40 2.5ft  -  6s 7 7 mph 1013.2mb 66f
2:30  -   -   -  7 7 mph 1013.2mb 66f
2:20  -   -   -  7 7 mph 1013.2mb 66f
2:10  -   -   -  7 9 mph 1013.2mb 66f
2:00  -   -   -  7 9 mph 1013.2mb 66f
1:50 2.5ft 11s 6s 7 9 mph 1013.3mb 66f
1:40 2.5ft  -  6s 7 9 mph 1013.3mb 66f
1:30  -   -   -  7 9 mph 1013.4mb 66f
1:20  -   -   -  7 9 mph 1013.4mb 66f
1:10  -   -   -  7 9 mph 1013.3mb 66f
1:00  -   -   -  7 9 mph 1013.3mb 66f
12:50 2.5ft 12s 6s 7 9 mph 1013.4mb 66f
12:40 2.5ft  -  6s 7 9 mph 1013.5mb 66f
12:30  -   -   -  7 9 mph 1013.5mb 65f
12:20  -   -   -  7 9 mph 1013.5mb 65f
12:10  -   -   -  9 9 mph 1013.5mb 65f
12:00  -   -   -  7 9 mph 1013.5mb 65f
Dom 09/17 11:50 2.5ft 12s 7s 7 9 mph 1013.5mb 66f
11:40 2.5ft  -  7s 7 9 mph 1013.5mb 66f
11:30  -   -   -  7 9 mph 1013.5mb 66f
11:20  -   -   -  7 9 mph 1013.5mb 66f
11:10  -   -   -  7 7 mph 1013.6mb 66f
11:00  -   -   -  7 7 mph 1013.5mb 66f
10:50 2.5ft 9s 7s 4 7 mph 1013.5mb 66f
10:40 2.5ft  -  7s 4 4 mph 1013.5mb 67f
10:30  -   -   -  4 4 mph 1013.5mb 67f
10:20  -   -   -  4 4 mph 1013.5mb 67f
10:10  -   -   -  4 4 mph 1013.5mb 67f
10:00  -   -   -  4 7 mph 1013.5mb 67f
9:50 2ft 13s 7s 4 7 mph 1013.5mb 67f
9:40 2ft  -  7s 4 7 mph 1013.5mb 67f
9:30  -   -   -  4 9 mph 1013.5mb -
9:20  -   -   -  4 7 mph 1013.4mb 67f
9:10  -   -   -  4 7 mph 1013.3mb 67f
9:00  -   -   -  4 7 mph 1013.2mb 67f
8:50 2ft 13s 7s 4 7 mph 1013.2mb 67f
8:40 2ft  -  7s 4 7 mph 1013.1mb 67f
8:30  -   -   -  4 7 mph 1012.9mb 67f
8:20  -   -   -  7 7 mph 1012.9mb 67f
8:10  -   -   -  7 7 mph 1012.7mb 67f
8:00  -   -   -  7 7 mph 1012.7mb 67f
7:50 2.5ft 11s  -  7 7 mph 1012.7mb 67f
7:40  -   -   -  7 9 mph 1012.7mb 67f
7:30  -   -   -  7 9 mph 1012.6mb 67f
7:20  -   -   -  7 9 mph 1012.5mb 67f
7:10  -   -   -  7 9 mph 1012.4mb 67f
7:00  -   -   -  7 9 mph 1012.4mb 67f
6:50 2.5ft 11s 7s 9 9 mph 1012.5mb 67f
6:40 2.5ft  -  7s 9 11 mph 1012.6mb 67f
6:30  -   -   -  9 9 mph 1012.5mb 67f
6:20  -   -   -  9 9 mph 1012.5mb 67f
6:10  -   -   -  9 11 mph 1012.6mb 67f
6:00  -   -   -  9 9 mph 1012.6mb 67f
5:50 2.5ft 12s 6s 9 11 mph 1012.7mb 67f
5:40 2.5ft  -  6s 9 11 mph 1012.8mb 67f
5:30  -   -   -  9 11 mph 1012.8mb 67f
5:20  -   -   -  9 11 mph 1012.8mb 67f
5:10  -   -   -  7 9 mph 1012.8mb 67f
5:00  -   -   -  9 11 mph 1012.9mb 67f
4:50 2.5ft 11s 7s 9 11 mph 1013.1mb 67f
4:40 2.5ft  -  7s 9 11 mph 1013.2mb 67f
4:30  -   -   -  9 11 mph 1013.3mb 67f
4:20  -   -   -  9 9 mph 1013.2mb 67f
4:10  -   -   -  9 11 mph 1013.3mb 67f
4:00  -   -   -  9 11 mph 1013.5mb 67f
3:50 2.5ft 10s 6s 9 9 mph 1013.5mb 67f
3:40  -   -   -  9 11 mph 1013.7mb 67f
3:30  -   -   -  9 11 mph 1013.7mb 67f
3:20  -   -   -  9 11 mph 1013.8mb 67f
3:10  -   -   -  9 11 mph 1013.8mb 67f
3:00  -   -   -  9 11 mph 1013.9mb 67f
2:50 2.5ft 10s 6s 9 9 mph 1014mb 67f
2:40  -   -   -  9 11 mph 1014.1mb 67f
2:30  -   -   -  9 11 mph 1014.1mb 67f
2:20  -   -   -  9 11 mph 1014.3mb 67f
2:10  -   -   -  9 11 mph 1014.3mb 67f
2:00  -   -   -  9 11 mph 1014.4mb 66f
1:50 2.5ft 10s 6s 9 13 mph 1014.5mb 66f
1:40 2.5ft  -  6s 11 11 mph 1014.6mb -
1:30  -   -   -  9 11 mph 1014.6mb 66f
1:20  -   -   -  11 11 mph 1014.6mb 66f
1:10  -   -   -  11 13 mph 1014.6mb 66f
1:00  -   -   -  11 13 mph 1014.7mb 66f
12:50 2.5ft 13s 6s 9 11 mph 1014.8mb 66f
12:40 2.5ft  -  6s 9 9 mph 1015.1mb 66f
12:30  -   -   -  9 9 mph 1015.1mb 66f
12:20  -   -   -  9 9 mph 1015.1mb 66f
12:10  -   -   -  9 9 mph 1015.3mb 66f
12:00  -   -   -  9 9 mph 1015.4mb 66f
11:50 2.5ft 11s 6s 9 9 mph 1015.3mb -
11:40 2.5ft  -  6s 9 9 mph 1015.4mb 66f
11:30  -   -   -  9 11 mph 1015.4mb -
11:20  -   -   -  9 11 mph 1015.4mb 66f
11:10  -   -   -  11 11 mph 1015.4mb 66f
11:00  -   -   -  11 11 mph 1015.2mb 66f
10:50 2.5ft 10s 6s 9 11 mph 1015.2mb 66f
10:40 2.5ft  -  6s 9 11 mph 1015.1mb 66f
10:30  -   -   -  9 11 mph 1015.1mb 66f
10:20  -   -   -  9 11 mph 1015.1mb 66f
10:10  -   -   -  9 11 mph 1014.9mb 66f
10:00  -   -   -  9 11 mph 1014.8mb 66f
9:50 2.5ft 11s 6s 9 11 mph 1014.8mb 66f
9:40  -   -   -  9 9 mph 1014.6mb 66f
9:30  -   -   -  9 11 mph 1014.5mb 66f
9:20  -   -   -  7 9 mph 1014.5mb 66f
9:10  -   -   -  7 7 mph 1014.3mb 66f
9:00  -   -   -  4 7 mph 1014.3mb 66f
8:50 2.5ft 10s 6s 4 7 mph 1014.2mb 66f
8:40 2.5ft  -  6s 2 7 mph 1014.1mb 66f
8:30  -   -   -  2 4 mph 1014mb -
8:20  -   -   -  2 2 mph 1013.9mb 66f
8:10  -   -   -  2 2 mph 1013.9mb 66f
8:00  -   -   -  2 4 mph 1013.8mb 66f
7:50 2.5ft 11s 6s 4 4 mph 1013.7mb 66f
7:40  -   -   -  4 7 mph 1013.8mb 66f
7:30  -   -   -  7 7 mph 1013.7mb 66f
7:20  -   -   -  2 7 mph 1013.6mb 66f
7:10  -   -   -  4 4 mph 1013.5mb 66f
7:00  -   -   -  2 4 mph 1013.3mb 66f
6:50 2.5ft 11s 6s 2 4 mph 1013.3mb -
6:40 2.5ft  -  6s 2 4 mph 1013.2mb 66f
6:30  -   -   -  2 4 mph 1013.2mb 66f
6:20  -   -   -  2 4 mph 1013mb 66f
6:10  -   -   -  2 4 mph 1012.9mb 66f
6:00  -   -   -  2 2 mph 1012.8mb 66f
5:50 2.5ft 10s 6s  -  2 mph 1012.8mb 66f
5:40 2.5ft  -  6s  -  2 mph 1012.7mb 66f
5:30  -   -   -   -  2 mph 1012.6mb 66f
5:20  -   -   -   -  2 mph 1012.6mb 66f
5:10  -   -   -  2 4 mph 1012.6mb 66f
5:00  -   -   -  2 4 mph 1012.7mb 66f
4:50 2.5ft 11s 6s 2 4 mph 1012.6mb -
4:40 2.5ft  -  6s 2 2 mph 1012.6mb 66f
4:30  -   -   -  2 4 mph 1012.5mb 66f
4:20  -   -   -  2 4 mph 1012.5mb 66f
4:10  -   -   -  2 4 mph 1012.5mb 66f
4:00  -   -   -  2 4 mph 1012.4mb 66f
3:50 2.5ft 10s 6s 4 4 mph 1012.3mb 66f
3:40  -   -   -  4 4 mph 1012.3mb 66f
3:30  -   -   -  4 4 mph 1012.2mb -
3:20  -   -   -  4 4 mph 1012.2mb 66f
3:10  -   -   -  2 4 mph 1012.3mb 66f
3:00  -   -   -  2 4 mph 1012.3mb 66f
2:50 2.5ft 11s 6s 2 4 mph 1012.3mb 66f
2:40 2.5ft  -  6s 2 4 mph 1012.3mb 66f
2:30  -   -   -   -  4 mph 1012.3mb 66f
2:20  -   -   -   -  0 mph 1012.3mb 66f
2:10  -   -   -   -  0 mph 1012.4mb 66f
2:00  -   -   -   -  0 mph 1012.4mb 66f
1:50 2.5ft 11s 6s  -  2 mph 1012.3mb 66f
1:40 2.5ft  -  6s 2 2 mph 1012.3mb 66f
1:30  -   -   -  2 4 mph 1012.4mb 66f
1:20  -   -   -  2 4 mph 1012.4mb 66f
1:10  -   -   -  4 7 mph 1012.5mb 66f
1:00  -   -   -  2 4 mph 1012.5mb 66f
12:50 2.5ft 10s 6s 2 4 mph 1012.5mb 66f
12:40 2.5ft  -  6s 4 4 mph 1012.4mb 67f
12:30  -   -   -  4 7 mph 1012.4mb 67f
12:20  -   -   -  7 9 mph 1012.4mb 67f
12:10  -   -   -  7 9 mph 1012.4mb 67f
12:00  -   -   -  7 9 mph 1012.3mb 67f
Sáb 09/16 11:50 3ft 11s 6s 7 9 mph 1012.3mb -
11:40 3ft  -  6s 7 11 mph 1012.3mb 67f
11:30  -   -   -  9 9 mph 1012.3mb -
11:20  -   -   -  9 11 mph 1012.3mb 67f
11:10  -   -   -  9 11 mph 1012.4mb 67f
11:00  -   -   -  9 11 mph 1012.4mb 67f
10:50 3ft 11s 5s 9 11 mph 1012.4mb 67f
10:40  -   -   -  9 11 mph 1012.5mb 67f
10:30  -   -   -  9 11 mph 1012.4mb 67f
10:20  -   -   -  9 11 mph 1012.3mb 67f
10:10  -   -   -  9 9 mph 1012.3mb 67f
10:00  -   -   -  9 11 mph 1012.2mb 67f
9:50 3ft 11s 5s 9 11 mph 1012.2mb 67f
9:40  -   -   -  9 9 mph 1012.1mb 67f
9:30  -   -   -  9 11 mph 1012mb 67f
9:20  -   -   -  9 11 mph 1011.9mb 67f
9:10  -   -   -  9 11 mph 1011.8mb 67f
9:00  -   -   -  9 11 mph 1011.8mb 67f
8:50 3ft 11s 5s 9 11 mph 1011.8mb 67f
8:40 3ft  -  5s 9 11 mph 1011.7mb 67f
8:30  -   -   -  9 9 mph 1011.6mb 67f
8:20  -   -   -  9 11 mph 1011.4mb 67f
8:10  -   -   -  9 13 mph 1011.3mb 67f
8:00  -   -   -  11 13 mph 1011.3mb 67f
7:50 3ft 11s 5s 9 11 mph 1011.3mb 67f
7:40 3ft  -  5s 11 13 mph 1011.2mb 67f
7:30  -   -   -  11 13 mph 1011.3mb 67f
7:20  -   -   -  11 13 mph 1011.3mb 67f
7:10  -   -   -  13 16 mph 1011.2mb 67f
7:00  -   -   -  13 16 mph 1011.2mb 67f
6:50 2.5ft 12s 5s 13 16 mph 1011.1mb 67f
6:40 2.5ft  -  5s 11 13 mph 1011.2mb 67f
6:30  -   -   -  11 16 mph 1011.2mb 67f
6:20  -   -   -  13 16 mph 1011.1mb 67f
6:10  -   -   -  13 16 mph 1011.2mb 67f
6:00  -   -   -  11 13 mph 1011.2mb 67f
5:50 2.5ft 14s 5s 11 13 mph 1011.2mb 67f
5:40  -   -   -  11 13 mph 1011.3mb 67f
5:30  -   -   -  11 13 mph 1011.4mb 67f
5:20  -   -   -  11 13 mph 1011.4mb 67f
5:10  -   -   -  11 13 mph 1011.5mb 67f
5:00  -   -   -  9 11 mph 1011.5mb 67f
4:50 2.5ft 11s 5s 9 11 mph 1011.5mb 67f
4:40 2.5ft  -  5s 9 11 mph 1011.5mb 67f
4:30  -   -   -  7 9 mph 1011.6mb 67f
4:20  -   -   -  9 11 mph 1011.5mb 67f
4:10  -   -   -  9 11 mph 1011.6mb 67f
4:00  -   -   -  11 11 mph 1011.7mb 67f
3:50 2.5ft 14s 5s 11 11 mph 1011.8mb 67f
3:40 2.5ft  -  5s 11 11 mph 1011.8mb 67f
3:30  -   -   -  11 13 mph 1011.8mb 67f
3:20  -   -   -  11 11 mph 1012mb 67f
3:10  -   -   -  11 11 mph 1012.1mb 67f
3:00  -   -   -  11 11 mph 1012.2mb 67f
2:50 2.5ft 14s 6s 9 11 mph 1012.3mb 67f
2:40  -   -   -  9 11 mph 1012.3mb 67f
2:30  -   -   -  9 11 mph 1012.4mb 67f
2:20  -   -   -  9 11 mph 1012.4mb 67f
2:10  -   -   -  7 9 mph 1012.5mb 67f
2:00  -   -   -  7 9 mph 1012.6mb 67f
1:50 2.5ft 13s 6s 7 9 mph 1012.6mb 67f
1:40 2.5ft  -  6s 7 7 mph 1012.7mb 67f
1:30  -   -   -  4 7 mph 1012.7mb -
1:20  -   -   -  4 7 mph 1012.8mb 67f
1:10  -   -   -  4 7 mph 1012.9mb 67f
1:00  -   -   -  4 7 mph 1012.9mb 67f
12:50 2.5ft 14s 5s 4 7 mph 1013mb 67f
12:40 2.5ft  -  5s 4 4 mph 1013.1mb 67f
12:30  -   -   -  4 4 mph 1013.2mb 67f
12:20  -   -   -  4 4 mph 1013.3mb 67f
12:10  -   -   -  4 7 mph 1013.3mb 67f
12:00  -   -   -  4 7 mph 1013.4mb 67f
11:50 2.5ft 15s 6s 4 7 mph 1013.5mb 66f
11:40 2.5ft  -  6s 4 7 mph 1013.5mb 66f
11:30  -   -   -  7 7 mph 1013.5mb 66f
11:20  -   -   -  7 7 mph 1013.6mb 66f
11:10  -   -   -  7 7 mph 1013.6mb 66f
11:00  -   -   -  7 7 mph 1013.6mb 66f
10:50 2.5ft 13s 6s 7 9 mph 1013.7mb 66f
10:40 2.5ft  -  6s 7 9 mph 1013.7mb 66f
10:30  -   -   -  7 9 mph 1013.7mb 66f
10:20  -   -   -  9 9 mph 1013.7mb 66f
10:10  -   -   -  9 11 mph 1013.7mb 66f
10:00  -   -   -  7 9 mph 1013.6mb 66f
9:50 2.5ft 13s 6s 9 9 mph 1013.6mb 66f
9:40  -   -   -  7 9 mph 1013.5mb 66f
9:30  -   -   -  7 9 mph 1013.5mb -
9:20  -   -   -  7 9 mph 1013.5mb 66f
9:10  -   -   -  7 9 mph 1013.4mb 66f
9:00  -   -   -  7 9 mph 1013.2mb 66f
8:50 2.5ft 14s 6s 7 7 mph 1013.1mb 66f
8:40 2.5ft  -  6s 7 7 mph 1012.9mb 66f
8:30  -   -   -  4 7 mph 1012.8mb -
8:20  -   -   -  4 7 mph 1012.8mb 66f
8:10  -   -   -  4 7 mph 1012.7mb 66f
8:00  -   -   -  4 7 mph 1012.6mb 66f
7:50 2.5ft 14s 6s 4 7 mph 1012.5mb 66f
7:40  -   -   -  7 7 mph 1012.4mb 66f
7:30  -   -   -  4 9 mph 1012.4mb 66f
7:20  -   -   -  7 9 mph 1012.3mb 66f
7:10  -   -   -  7 9 mph 1012.3mb 66f
7:00  -   -   -  9 9 mph 1012.2mb 66f
6:50 2.5ft 14s 5s 9 9 mph 1012.2mb 66f
6:40 2.5ft  -  5s 9 11 mph 1012.1mb 66f
6:30  -   -   -  9 9 mph 1012mb 66f
6:20  -   -   -  7 9 mph 1012mb 66f
6:10  -   -   -  4 4 mph 1011.8mb 66f
6:00  -   -   -  4 4 mph 1011.8mb 66f
5:50 3.5ft 14s 5s 4 7 mph 1011.7mb 67f
5:40  -   -   -  4 7 mph 1011.6mb 67f
5:30  -   -   -  4 7 mph 1011.6mb 67f
5:20  -   -   -  4 7 mph 1011.6mb 67f
5:10  -   -   -  7 9 mph 1011.5mb 67f
5:00  -   -   -  7 9 mph 1011.5mb 67f
4:50 3.5ft 14s 5s 7 9 mph 1011.5mb -
4:40 3.5ft  -  5s 7 9 mph 1011.6mb 67f
4:30  -   -   -  7 9 mph 1011.6mb 67f
4:20  -   -   -  7 9 mph 1011.6mb 67f
4:10  -   -   -  7 9 mph 1011.6mb 67f
4:00  -   -   -  7 9 mph 1011.6mb 67f
3:50 3.5ft 13s 5s 7 9 mph 1011.5mb 67f
3:40 3.5ft  -  5s 7 9 mph 1011.6mb 67f
3:30  -   -   -  9 11 mph 1011.6mb 67f
3:20  -   -   -  9 11 mph 1011.6mb 67f
3:10  -   -   -  9 11 mph 1011.6mb 67f
3:00  -   -   -  9 9 mph 1011.6mb 67f
2:50 3.5ft 7s 5s 9 11 mph 1011.6mb 67f
2:40 3.5ft  -  5s 7 9 mph 1011.6mb 68f
2:30  -   -   -  7 9 mph 1011.6mb 68f
2:20  -   -   -  9 9 mph 1011.5mb 68f
2:10  -   -   -  7 9 mph 1011.6mb 68f
2:00  -   -   -  7 9 mph 1011.6mb 68f
1:50 3.5ft 15s 5s 7 9 mph 1011.6mb 68f
1:40 3.5ft  -  5s 7 9 mph 1011.6mb 68f
1:30  -   -   -  9 9 mph 1011.5mb 68f
1:20  -   -   -  9 9 mph 1011.4mb 68f
1:10  -   -   -  9 11 mph 1011.4mb 68f
1:00  -   -   -  9 11 mph 1011.5mb 68f
12:50 4ft 14s 5s 9 11 mph 1011.6mb 68f
12:40  -   -   -  9 11 mph 1011.6mb 68f
12:30  -   -   -  7 9 mph 1011.6mb 68f
12:20  -   -   -  7 9 mph 1011.7mb 68f
12:10  -   -   -  4 7 mph 1011.7mb 68f
12:00  -   -   -  4 7 mph 1011.7mb 68f
Sex 09/15 11:50 4ft 6s 5s 2 4 mph 1011.7mb 68f
11:40 4ft  -  5s 4 4 mph 1011.7mb 68f
11:30  -   -   -  2 4 mph 1011.8mb 68f
11:20  -   -   -  2 4 mph 1011.7mb 68f
11:10  -   -   -  2 4 mph 1011.7mb 68f
11:00  -   -   -  4 7 mph 1011.7mb 68f
10:50 3.5ft 7s 5s 4 7 mph 1011.7mb 68f
10:40 3.5ft  -  5s 4 9 mph 1011.7mb 69f
10:30  -   -   -  4 7 mph 1011.7mb 69f
10:20  -   -   -  4 7 mph 1011.7mb 69f
10:10  -   -   -  4 7 mph 1011.7mb 69f
10:00  -   -   -  4 7 mph 1011.6mb 69f
9:50 3.5ft 14s 5s 4 7 mph 1011.6mb 69f
9:40 3.5ft  -  5s 4 7 mph 1011.5mb 69f
9:30  -   -   -  7 7 mph 1011.5mb -
9:20  -   -   -  7 9 mph 1011.4mb 68f
9:10  -   -   -  7 7 mph 1011.3mb 69f
9:00  -   -   -  7 7 mph 1011.3mb 69f
8:50 3ft 15s 6s 4 7 mph 1011.3mb 69f
8:40  -   -   -  4 7 mph 1011.2mb 69f
8:30  -   -   -  7 9 mph 1011.1mb 69f
8:20  -   -   -  7 9 mph 1011mb 69f
8:10  -   -   -  7 9 mph 1010.9mb 69f
8:00  -   -   -  4 7 mph 1010.8mb 69f
7:50 3ft 14s 5s 4 7 mph 1010.8mb 69f
7:40 3ft  -  5s 4 7 mph 1010.8mb 69f
7:30  -   -   -  4 7 mph 1010.7mb 69f
7:20  -   -   -  4 7 mph 1010.6mb 69f
7:10  -   -   -  7 9 mph 1010.7mb 69f
7:00  -   -   -  9 9 mph 1010.6mb 69f
6:50 2.5ft 14s 5s 9 9 mph 1010.7mb 69f
6:40 2.5ft  -  5s 9 11 mph 1010.7mb 69f
6:30  -   -   -  11 13 mph 1010.8mb 69f
6:20  -   -   -  11 13 mph 1011mb 69f
6:10  -   -   -  11 13 mph 1011mb 69f
6:00  -   -   -  11 13 mph 1011.1mb 69f
5:50 2.5ft 15s 5s 11 13 mph 1011.1mb 69f
5:40 2.5ft  -  5s 11 13 mph 1011.1mb 69f
5:30  -   -   -  11 13 mph 1011.1mb 69f
5:20  -   -   -  11 13 mph 1011.1mb -
5:10  -   -   -  11 13 mph 1011.2mb 70f
5:00  -   -   -  11 13 mph 1011.2mb 70f
4:50 2.5ft 15s 6s 11 13 mph 1011.3mb 70f
4:40  -   -   -  7 9 mph 1011.3mb 70f
4:30  -   -   -  9 9 mph 1011.3mb 70f
4:20  -   -   -  9 9 mph 1011.3mb 70f
4:10  -   -   -  9 11 mph 1011.4mb 70f
4:00  -   -   -  9 11 mph 1011.4mb 70f
3:50 3ft 15s 6s 9 9 mph 1011.4mb 70f
3:40 3ft  -  6s 7 11 mph 1011.6mb 70f
3:30  -   -   -  7 9 mph 1011.6mb 70f
3:20  -   -   -  7 9 mph 1011.7mb 70f